createdAt,value
2022-12-18T00:01:21.203Z,44.78
2022-12-18T00:03:54.499Z,41.80
2022-12-18T00:06:28.723Z,46.70
2022-12-18T00:09:02.109Z,44.88
2022-12-18T00:11:34.053Z,43.00
2022-12-18T00:14:07.471Z,39.75
2022-12-18T00:16:39.953Z,42.13
2022-12-18T00:19:12.761Z,39.17
2022-12-18T00:21:45.305Z,42.13
2022-12-18T00:24:17.251Z,35.17
2022-12-18T00:26:49.218Z,40.97
2022-12-18T00:29:22.539Z,40.00
2022-12-18T00:31:54.597Z,39.65
2022-12-18T00:34:26.584Z,45.35
2022-12-18T00:36:58.975Z,42.10
2022-12-18T00:39:31.088Z,37.60
2022-12-18T00:42:21.502Z,41.92
2022-12-18T00:44:54.957Z,39.13
2022-12-18T00:47:26.883Z,40.13
2022-12-18T00:49:58.954Z,39.67
2022-12-18T00:52:30.862Z,41.53
2022-12-18T00:55:06.451Z,42.10
2022-12-18T00:57:38.740Z,36.58
2022-12-18T01:00:15.835Z,39.00
2022-12-18T01:02:47.937Z,36.97
2022-12-18T01:05:20.139Z,41.60
2022-12-18T01:07:52.127Z,41.78
2022-12-18T01:10:26.345Z,41.10
2022-12-18T01:12:58.298Z,38.78
2022-12-18T01:15:31.619Z,36.60
2022-12-18T01:18:03.623Z,38.42
2022-12-18T01:20:39.194Z,43.45
2022-12-18T01:23:11.245Z,43.13
2022-12-18T01:25:43.251Z,40.10
2022-12-18T01:28:15.475Z,43.38
2022-12-18T01:30:48.803Z,41.75
2022-12-18T01:33:20.708Z,39.88
2022-12-18T01:35:52.645Z,38.10
2022-12-18T01:38:26.616Z,35.40
2022-12-18T01:40:58.695Z,39.63
2022-12-18T01:43:48.705Z,38.90
2022-12-18T01:46:23.899Z,39.50
2022-12-18T01:48:58.864Z,41.30
2022-12-18T01:51:32.280Z,42.22
2022-12-18T01:54:04.283Z,40.97
2022-12-18T01:56:36.252Z,42.90
2022-12-18T01:59:11.164Z,38.83
2022-12-18T02:01:44.580Z,37.70
2022-12-18T02:04:22.205Z,39.42
2022-12-18T02:07:01.663Z,41.35
2022-12-18T02:09:42.536Z,40.40
2022-12-18T02:12:20.338Z,37.38
2022-12-18T02:15:00.304Z,36.67
2022-12-18T02:20:17.494Z,35.63
2022-12-18T02:23:07.158Z,36.20
2022-12-18T02:26:02.024Z,33.15
2022-12-18T02:28:38.503Z,34.22
2022-12-18T02:31:15.968Z,30.85
2022-12-18T02:33:50.416Z,31.05
2022-12-18T02:36:24.893Z,29.73
2022-12-18T02:39:02.108Z,32.35
2022-12-18T02:41:37.633Z,29.25
2022-12-18T02:44:12.946Z,27.88
2022-12-18T02:46:47.585Z,28.33
2022-12-18T02:49:31.939Z,28.38
2022-12-18T02:52:13.160Z,27.83
2022-12-18T02:55:01.187Z,26.50
2022-12-18T02:57:41.889Z,26.13
2022-12-18T03:00:19.628Z,25.85
2022-12-18T03:02:59.899Z,25.35
2022-12-18T03:05:37.735Z,27.80
2022-12-18T03:08:15.730Z,24.90
2022-12-18T03:10:55.059Z,25.67
2022-12-18T03:13:32.629Z,24.27
2022-12-18T03:16:08.058Z,25.45
2022-12-18T03:18:46.559Z,24.85
2022-12-18T03:21:23.347Z,25.20
2022-12-18T03:23:56.947Z,24.88
2022-12-18T03:26:32.955Z,25.35
2022-12-18T03:29:13.568Z,23.60
2022-12-18T03:31:51.436Z,28.35
2022-12-18T03:34:29.634Z,25.15
2022-12-18T03:37:02.518Z,23.95
2022-12-18T03:39:37.490Z,26.50
2022-12-18T03:42:16.662Z,24.02
2022-12-18T03:45:01.288Z,26.45
2022-12-18T03:47:39.768Z,23.33
2022-12-18T03:50:17.013Z,26.15
2022-12-18T03:52:58.405Z,23.20
2022-12-18T03:55:34.706Z,25.23
2022-12-18T03:58:12.363Z,27.77
2022-12-18T04:01:02.733Z,25.20
2022-12-18T04:03:36.847Z,25.33
2022-12-18T04:06:10.237Z,25.25
2022-12-18T04:08:44.529Z,24.48
2022-12-18T04:11:19.801Z,23.42
2022-12-18T04:13:57.347Z,21.83
2022-12-18T04:16:30.931Z,25.70
2022-12-18T04:19:07.222Z,25.80
2022-12-18T04:21:44.406Z,23.67
2022-12-18T04:24:17.993Z,22.48
2022-12-18T04:26:59.256Z,22.23
2022-12-18T04:29:36.764Z,24.63
2022-12-18T04:32:10.242Z,23.35
2022-12-18T04:34:43.532Z,25.55
2022-12-18T04:37:15.810Z,25.67
2022-12-18T04:39:48.355Z,25.85
2022-12-18T04:42:28.029Z,25.38
2022-12-18T04:44:59.921Z,25.15
2022-12-18T04:47:33.284Z,24.45
2022-12-18T04:50:06.263Z,24.55
2022-12-18T04:52:38.147Z,24.75
2022-12-18T04:55:10.161Z,22.83
2022-12-18T04:57:42.036Z,24.67
2022-12-18T05:00:14.812Z,24.00
2022-12-18T05:02:48.301Z,26.15
2022-12-18T05:05:20.415Z,23.75
2022-12-18T05:07:52.361Z,24.08
2022-12-18T05:10:24.334Z,23.80
2022-12-18T05:13:02.233Z,24.13
2022-12-18T05:15:34.999Z,23.85
2022-12-18T05:18:08.854Z,22.98
2022-12-18T05:20:40.796Z,19.95
2022-12-18T05:23:12.712Z,21.52
2022-12-18T05:25:48.260Z,17.55
2022-12-18T05:28:20.398Z,20.08
2022-12-18T05:30:53.417Z,19.73
2022-12-18T05:33:30.065Z,20.35
2022-12-18T05:36:03.569Z,19.25
2022-12-18T05:38:37.825Z,18.60
2022-12-18T05:41:10.462Z,18.02
2022-12-18T05:43:44.023Z,20.77
2022-12-18T05:46:18.591Z,21.95
2022-12-18T05:48:52.091Z,21.17
2022-12-18T05:51:24.110Z,19.95
2022-12-18T05:53:56.289Z,44.42
2022-12-18T05:56:28.286Z,49.38
2022-12-18T05:59:00.269Z,46.33
2022-12-18T06:01:32.306Z,59.95
2022-12-18T06:04:06.007Z,35.20
2022-12-18T06:06:38.801Z,36.17
2022-12-18T06:09:10.998Z,34.55
2022-12-18T06:11:43.044Z,35.78
2022-12-18T06:14:14.994Z,43.15
2022-12-18T06:16:46.928Z,38.55
2022-12-18T06:19:20.319Z,69.65
2022-12-18T06:21:52.335Z,52.60
2022-12-18T06:24:24.249Z,70.07
2022-12-18T06:26:56.234Z,72.07
2022-12-18T06:29:28.146Z,52.03
2022-12-18T06:32:00.247Z,44.22
2022-12-18T06:34:35.480Z,33.20
2022-12-18T06:37:07.472Z,33.67
2022-12-18T06:39:39.434Z,26.55
2022-12-18T06:42:11.565Z,21.83
2022-12-18T06:44:43.511Z,24.00
2022-12-18T06:47:15.550Z,24.02
2022-12-18T06:49:48.820Z,22.20
2022-12-18T06:52:20.790Z,20.30
2022-12-18T06:54:52.793Z,19.85
2022-12-18T06:57:24.841Z,20.90
2022-12-18T06:59:56.846Z,17.77
2022-12-18T07:02:28.924Z,15.45
2022-12-18T07:05:07.503Z,17.50
2022-12-18T07:07:42.403Z,18.00
2022-12-18T07:10:14.509Z,13.82
2022-12-18T07:12:46.759Z,12.20
2022-12-18T07:15:18.691Z,15.25
2022-12-18T07:17:50.654Z,19.30
2022-12-18T07:20:23.954Z,39.05
2022-12-18T07:22:56.483Z,39.10
2022-12-18T07:25:28.489Z,36.40
2022-12-18T07:28:00.461Z,42.28
2022-12-18T07:30:32.501Z,29.13
2022-12-18T07:33:04.518Z,22.83
2022-12-18T07:35:37.857Z,35.30
2022-12-18T07:38:09.829Z,39.72
2022-12-18T07:40:41.774Z,40.08
2022-12-18T07:43:13.896Z,41.90
2022-12-18T07:45:45.859Z,35.63
2022-12-18T07:48:18.002Z,27.63
2022-12-18T07:50:51.287Z,25.05
2022-12-18T07:53:23.275Z,26.35
2022-12-18T07:56:25.535Z,22.63
2022-12-18T07:58:49.151Z,26.00
2022-12-18T08:01:21.340Z,25.40
2022-12-18T08:03:53.612Z,29.90
2022-12-18T08:06:27.028Z,25.55
2022-12-18T08:08:59.082Z,29.27
2022-12-18T08:11:31.070Z,25.98
2022-12-18T08:14:03.105Z,27.33
2022-12-18T08:16:35.076Z,24.27
2022-12-18T08:19:07.109Z,49.38
2022-12-18T08:21:43.224Z,30.98
2022-12-18T08:24:15.287Z,29.60
2022-12-18T08:27:01.007Z,26.80
2022-12-18T08:29:39.626Z,23.33
2022-12-18T08:32:11.630Z,19.80
2022-12-18T08:34:43.671Z,20.10
2022-12-18T08:37:17.004Z,23.13
2022-12-18T08:39:49.010Z,29.80
2022-12-18T08:42:39.113Z,27.45
2022-12-18T08:45:11.663Z,26.75
2022-12-18T08:47:43.541Z,20.42
2022-12-18T08:50:15.930Z,54.03
2022-12-18T08:52:49.190Z,27.27
2022-12-18T08:55:21.262Z,68.60
2022-12-18T08:57:54.629Z,23.75
2022-12-18T09:00:26.692Z,36.78
2022-12-18T09:02:58.748Z,25.02
2022-12-18T09:05:31.665Z,25.95
2022-12-18T09:08:05.071Z,34.65
2022-12-18T09:10:43.473Z,22.58
2022-12-18T09:13:17.109Z,25.65
2022-12-18T09:15:50.964Z,22.48
2022-12-18T09:18:24.523Z,21.50
2022-12-18T09:20:56.759Z,28.20
2022-12-18T09:23:30.025Z,21.70
2022-12-18T09:26:01.987Z,23.05
2022-12-18T09:28:34.140Z,15.27
2022-12-18T09:31:08.659Z,16.45
2022-12-18T09:33:40.828Z,18.90
2022-12-18T09:36:14.958Z,20.65
2022-12-18T09:38:48.365Z,16.25
2022-12-18T09:41:40.217Z,17.38
2022-12-18T09:44:18.499Z,15.25
2022-12-18T09:47:02.380Z,16.90
2022-12-18T09:49:38.923Z,16.85
2022-12-18T09:52:16.823Z,18.77
2022-12-18T09:54:54.739Z,16.35
2022-12-18T09:57:26.960Z,16.85
2022-12-18T10:00:04.465Z,31.50
2022-12-18T10:02:43.931Z,22.50
2022-12-18T10:05:21.791Z,28.05
2022-12-18T10:08:02.813Z,24.02
2022-12-18T10:10:40.915Z,27.50
2022-12-18T10:13:24.091Z,30.55
2022-12-18T10:16:09.440Z,18.15
2022-12-18T10:18:58.209Z,27.27
2022-12-18T10:21:36.548Z,27.38
2022-12-18T10:24:18.645Z,16.73
2022-12-18T10:26:54.191Z,15.00
2022-12-18T10:29:26.605Z,25.40
2022-12-18T10:31:58.536Z,29.48
2022-12-18T10:34:30.566Z,20.08
2022-12-18T10:37:07.390Z,31.23
2022-12-18T10:39:39.411Z,23.30
2022-12-18T10:42:18.283Z,23.35
2022-12-18T10:45:02.473Z,23.38
2022-12-18T10:47:35.697Z,26.48
2022-12-18T10:50:26.178Z,31.48
2022-12-18T10:53:03.495Z,20.55
2022-12-18T10:55:38.688Z,21.67
2022-12-18T10:58:28.016Z,26.98
2022-12-18T11:01:09.440Z,32.53
2022-12-18T11:03:42.751Z,32.30
2022-12-18T11:06:17.356Z,22.20
2022-12-18T11:09:00.361Z,22.17
2022-12-18T11:11:34.082Z,19.02
2022-12-18T11:14:19.898Z,21.45
2022-12-18T11:19:45.412Z,26.95
2022-12-18T11:22:22.852Z,30.67
2022-12-18T11:25:30.961Z,21.17
2022-12-18T11:27:53.862Z,22.98
2022-12-18T11:30:29.622Z,23.05
2022-12-18T11:33:06.386Z,22.38
2022-12-18T11:35:48.797Z,24.55
2022-12-18T11:38:25.150Z,26.10
2022-12-18T11:41:01.524Z,39.65
2022-12-18T11:43:39.481Z,30.80
2022-12-18T11:46:19.553Z,25.42
2022-12-18T11:49:00.008Z,29.50
2022-12-18T11:51:36.583Z,33.60
2022-12-18T11:54:14.810Z,31.92
2022-12-18T11:56:50.300Z,41.00
2022-12-18T11:59:34.241Z,32.25
2022-12-18T12:02:32.083Z,25.90
2022-12-18T12:05:34.208Z,24.13
2022-12-18T12:08:13.682Z,20.70
2022-12-18T12:10:57.418Z,21.10
2022-12-18T12:13:42.301Z,20.55
2022-12-18T12:16:19.701Z,20.33
2022-12-18T12:19:05.984Z,17.70
2022-12-18T12:21:41.587Z,18.17
2022-12-18T12:24:29.817Z,16.65
2022-12-18T12:27:11.614Z,14.90
2022-12-18T12:29:56.706Z,18.58
2022-12-18T12:32:46.140Z,17.02
2022-12-18T12:35:33.232Z,18.60
2022-12-18T12:38:11.936Z,20.75
2022-12-18T12:40:53.927Z,23.95
2022-12-18T12:43:36.822Z,22.48
2022-12-18T12:46:11.031Z,24.60
2022-12-18T12:48:47.508Z,26.83
2022-12-18T12:51:23.036Z,38.15
2022-12-18T12:53:57.599Z,45.25
2022-12-18T12:56:42.322Z,43.83
2022-12-18T12:59:20.345Z,56.58
2022-12-18T13:01:59.422Z,44.50
2022-12-18T13:04:37.386Z,41.25
2022-12-18T13:07:17.507Z,34.45
2022-12-18T13:10:17.482Z,29.08
2022-12-18T13:12:58.662Z,26.17
2022-12-18T13:15:42.594Z,24.52
2022-12-18T13:18:18.759Z,27.05
2022-12-18T13:21:03.734Z,24.63
2022-12-18T13:23:38.746Z,23.58
2022-12-18T13:26:32.962Z,27.10
2022-12-18T13:29:05.577Z,34.13
2022-12-18T13:32:20.214Z,38.38
2022-12-18T13:35:31.912Z,31.35
2022-12-18T13:38:22.534Z,32.00
2022-12-18T13:40:58.170Z,33.00
2022-12-18T13:43:34.770Z,33.72
2022-12-18T13:46:22.495Z,34.70
2022-12-18T13:49:01.993Z,35.33
2022-12-18T13:51:36.275Z,41.83
2022-12-18T13:54:20.959Z,46.95
2022-12-18T13:56:54.277Z,55.63
2022-12-18T13:59:27.680Z,61.25
2022-12-18T14:02:04.063Z,49.63
2022-12-18T14:04:37.097Z,40.03
2022-12-18T14:07:15.059Z,42.38
2022-12-18T14:09:52.283Z,41.22
2022-12-18T14:12:49.699Z,39.25
2022-12-18T14:15:29.842Z,36.58
2022-12-18T14:18:10.737Z,31.48
2022-12-18T14:23:31.458Z,37.92
2022-12-18T14:26:20.430Z,33.55
2022-12-18T14:28:55.008Z,35.80
2022-12-18T14:31:29.167Z,31.52
2022-12-18T14:34:01.062Z,25.00
2022-12-18T14:36:33.022Z,27.40
2022-12-18T14:39:05.016Z,110.32
2022-12-18T14:41:37.003Z,30.85
2022-12-18T14:44:14.163Z,21.95
2022-12-18T14:46:47.505Z,21.25
2022-12-18T14:49:24.511Z,20.17
2022-12-18T14:51:58.385Z,18.88
2022-12-18T14:54:32.932Z,21.88
2022-12-18T14:57:22.092Z,18.45
2022-12-18T15:00:05.533Z,19.03
2022-12-18T15:02:37.805Z,21.50
2022-12-18T15:05:20.534Z,22.80
2022-12-18T15:07:53.939Z,22.83
2022-12-18T15:10:27.508Z,18.17
2022-12-18T15:13:09.802Z,20.88
2022-12-18T15:15:50.436Z,17.02
2022-12-18T15:18:26.882Z,15.32
2022-12-18T15:21:00.990Z,14.65
2022-12-18T15:23:37.139Z,14.02
2022-12-18T15:26:11.524Z,15.40
2022-12-18T15:28:46.761Z,14.57
2022-12-18T15:31:31.064Z,15.23
2022-12-18T15:34:15.403Z,15.05
2022-12-18T15:36:47.399Z,15.02
2022-12-18T15:39:19.452Z,14.85
2022-12-18T15:42:10.015Z,16.50
2022-12-18T15:44:41.968Z,19.73
2022-12-18T15:47:15.346Z,18.40
2022-12-18T15:49:47.404Z,16.85
2022-12-18T15:52:27.073Z,16.70
2022-12-18T15:55:17.830Z,22.67
2022-12-18T15:57:49.927Z,15.63
2022-12-18T16:00:21.976Z,13.95
2022-12-18T16:02:55.461Z,14.02
2022-12-18T16:05:28.518Z,13.57
2022-12-18T16:08:00.468Z,14.75
2022-12-18T16:10:32.469Z,15.95
2022-12-18T16:13:04.391Z,16.88
2022-12-18T16:15:36.323Z,17.30
2022-12-18T16:18:09.638Z,18.27
2022-12-18T16:20:41.794Z,18.30
2022-12-18T16:23:13.744Z,15.43
2022-12-18T16:25:45.657Z,15.90
2022-12-18T16:28:17.607Z,15.32
2022-12-18T16:30:49.712Z,18.10
2022-12-18T16:33:23.073Z,16.65
2022-12-18T16:35:55.028Z,17.02
2022-12-18T16:38:26.987Z,16.60
2022-12-18T16:41:17.534Z,14.02
2022-12-18T16:43:54.677Z,25.20
2022-12-18T16:46:27.087Z,16.50
2022-12-18T16:49:01.272Z,14.52
2022-12-18T16:51:33.153Z,14.40
2022-12-18T16:54:09.736Z,13.77
2022-12-18T16:56:43.691Z,14.23
2022-12-18T16:59:16.483Z,15.30
2022-12-18T17:01:48.676Z,14.48
2022-12-18T17:04:22.043Z,13.57
2022-12-18T17:06:54.010Z,12.70
2022-12-18T17:09:26.104Z,13.32
2022-12-18T17:11:58.058Z,13.77
2022-12-18T17:14:30.124Z,19.88
2022-12-18T17:19:55.365Z,16.08
2022-12-18T17:22:28.039Z,12.63
2022-12-18T17:24:59.976Z,13.02
2022-12-18T17:27:31.942Z,14.40
2022-12-18T17:30:04.667Z,13.40
2022-12-18T17:32:36.614Z,16.42
2022-12-18T17:35:10.248Z,13.02
2022-12-18T17:37:42.165Z,11.80
2022-12-18T17:40:14.147Z,14.82
2022-12-18T17:42:46.043Z,11.43
2022-12-18T17:45:17.936Z,12.10
2022-12-18T17:47:49.890Z,11.60
2022-12-18T17:50:23.209Z,14.15
2022-12-18T17:52:56.123Z,12.00
2022-12-18T17:55:28.780Z,11.80
2022-12-18T17:58:00.689Z,11.70
2022-12-18T18:00:32.652Z,10.63
2022-12-18T18:03:04.615Z,9.80
2022-12-18T18:05:38.061Z,11.38
2022-12-18T18:08:10.126Z,10.05
2022-12-18T18:10:42.162Z,12.25
2022-12-18T18:13:42.082Z,15.02
2022-12-18T18:16:18.367Z,9.98
2022-12-18T18:18:50.369Z,8.10
2022-12-18T18:21:23.659Z,9.55
2022-12-18T18:24:00.357Z,8.32
2022-12-18T18:26:33.952Z,9.65
2022-12-18T18:29:07.730Z,9.25
2022-12-18T18:31:43.023Z,8.65
2022-12-18T18:34:16.265Z,9.52
2022-12-18T18:36:50.090Z,9.10
2022-12-18T18:39:22.174Z,9.73
2022-12-18T18:41:54.402Z,9.13
2022-12-18T18:44:26.612Z,8.80
2022-12-18T18:46:59.274Z,10.38
2022-12-18T18:49:31.927Z,9.07
2022-12-18T18:52:07.173Z,8.70
2022-12-18T18:54:51.900Z,10.02
2022-12-18T18:57:31.137Z,9.52
2022-12-18T19:00:03.567Z,9.02
2022-12-18T19:02:35.675Z,7.72
2022-12-18T19:05:08.458Z,9.10
2022-12-18T19:07:42.277Z,9.65
2022-12-18T19:10:14.261Z,8.40
2022-12-18T19:13:04.481Z,8.60
2022-12-18T19:18:08.376Z,9.15
2022-12-18T19:20:40.414Z,8.98
2022-12-18T19:23:13.794Z,9.35
2022-12-18T19:25:45.691Z,9.23
2022-12-18T19:28:22.080Z,7.28
2022-12-18T19:30:59.580Z,7.80
2022-12-18T19:33:43.234Z,7.60
2022-12-18T19:36:19.930Z,8.07
2022-12-18T19:38:54.764Z,8.27
2022-12-18T19:41:29.099Z,8.45
2022-12-18T19:44:07.845Z,8.25
2022-12-18T19:46:42.303Z,8.38
2022-12-18T19:49:17.727Z,8.50
2022-12-18T19:51:53.174Z,7.63
2022-12-18T19:54:26.507Z,7.40
2022-12-18T19:56:58.517Z,6.38
2022-12-18T19:59:30.514Z,6.93
2022-12-18T20:02:02.579Z,6.57
2022-12-18T20:04:34.751Z,6.20
2022-12-18T20:07:06.775Z,6.40
2022-12-18T20:09:40.212Z,6.85
2022-12-18T20:12:12.987Z,7.43
2022-12-18T20:14:44.893Z,6.13
2022-12-18T20:17:17.067Z,6.20
2022-12-18T20:19:49.006Z,6.72
2022-12-18T20:22:21.385Z,6.13
2022-12-18T20:24:54.697Z,5.70
2022-12-18T20:27:26.847Z,5.72
2022-12-18T20:29:58.796Z,7.13
2022-12-18T20:32:36.761Z,6.25
2022-12-18T20:35:09.154Z,6.20
2022-12-18T20:37:46.082Z,6.80
2022-12-18T20:40:22.095Z,6.05
2022-12-18T20:42:54.040Z,6.55
2022-12-18T20:45:27.865Z,7.70
2022-12-18T20:48:00.995Z,6.07
2022-12-18T20:50:33.018Z,5.63
2022-12-18T20:53:05.680Z,5.85
2022-12-18T20:55:43.207Z,7.07
2022-12-18T20:58:15.145Z,6.05
2022-12-18T21:00:47.179Z,6.38
2022-12-18T21:03:19.176Z,6.90
2022-12-18T21:05:51.165Z,6.38
2022-12-18T21:08:23.078Z,6.75
2022-12-18T21:10:56.445Z,6.25
2022-12-18T21:13:29.127Z,7.20
2022-12-18T21:16:02.888Z,6.97
2022-12-18T21:18:36.077Z,6.57
2022-12-18T21:21:08.316Z,5.22
2022-12-18T21:23:40.433Z,5.63
2022-12-18T21:26:17.912Z,5.93
2022-12-18T21:28:55.256Z,6.40
2022-12-18T21:31:28.548Z,5.80
2022-12-18T21:34:02.344Z,5.85
2022-12-18T21:36:35.399Z,6.25
2022-12-18T21:39:07.342Z,6.25
2022-12-18T21:41:59.647Z,6.57
2022-12-18T21:44:35.741Z,6.18
2022-12-18T21:47:21.893Z,5.70
2022-12-18T21:49:54.397Z,5.40
2022-12-18T21:52:32.319Z,5.72
2022-12-18T21:55:09.540Z,4.55
2022-12-18T21:57:43.377Z,5.32
2022-12-18T22:00:18.996Z,5.93
2022-12-18T22:03:17.742Z,5.85
2022-12-18T22:05:43.721Z,6.65
2022-12-18T22:08:15.656Z,7.53
2022-12-18T22:10:47.718Z,6.53
2022-12-18T22:13:21.306Z,6.97
2022-12-18T22:15:53.395Z,12.23
2022-12-18T22:18:25.378Z,8.18
2022-12-18T22:21:04.755Z,8.38
2022-12-18T22:23:36.722Z,7.37
2022-12-18T22:26:10.792Z,6.82
2022-12-18T22:29:04.348Z,5.47
2022-12-18T22:31:36.778Z,5.75
2022-12-18T22:34:09.262Z,7.22
2022-12-18T22:36:43.099Z,6.68
2022-12-18T22:39:17.331Z,7.03
2022-12-18T22:41:49.823Z,6.97
2022-12-18T22:44:23.220Z,6.47
2022-12-18T22:47:05.397Z,7.43
2022-12-18T22:49:39.062Z,6.80
2022-12-18T22:52:11.533Z,6.80
2022-12-18T22:54:43.510Z,9.35
2022-12-18T22:57:15.441Z,7.03
2022-12-18T22:59:49.252Z,7.03
2022-12-18T23:02:21.386Z,7.70
2022-12-18T23:04:53.478Z,6.45
2022-12-18T23:07:25.388Z,7.90
2022-12-18T23:10:00.744Z,7.95
2022-12-18T23:12:33.285Z,7.30
2022-12-18T23:15:09.925Z,6.97
2022-12-18T23:17:41.846Z,7.13
2022-12-18T23:20:13.938Z,6.93
2022-12-18T23:22:45.872Z,6.88
2022-12-18T23:25:18.120Z,8.23
2022-12-18T23:27:50.056Z,7.13
2022-12-18T23:30:23.624Z,7.95
2022-12-18T23:32:55.591Z,7.80
2022-12-18T23:35:27.573Z,7.38
2022-12-18T23:38:00.232Z,6.55
2022-12-18T23:40:32.605Z,7.00
2022-12-18T23:43:04.524Z,7.47
2022-12-18T23:45:39.069Z,7.70
2022-12-18T23:48:11.020Z,7.25
2022-12-18T23:50:42.955Z,8.27
2022-12-18T23:53:14.885Z,7.65
2022-12-18T23:55:46.828Z,7.28
2022-12-18T23:58:21.235Z,8.48
